Time;durP1;ratioP1;P1;durP2;ratioP2;P2;SDS_P1;SDS_P2;PMS_P1;PMS_P2;Temp;Humidity;BMP_temperature;BMP_pressure;BME280_temperature;BME280_humidity;BME280_pressure;Samples;Min_cycle;Max_cycle;Signal;HPM_P1;HPM_P2
2023/01/12 00:01:52;;;;;;;74.22;11.57;;;9.70;99.90;;;;;;6220281;23;20145;-87
2023/01/12 00:04:18;;;;;;;72.70;12.23;;;9.70;99.90;;;;;;6220557;23;20203;-87
2023/01/12 00:06:44;;;;;;;74.90;11.83;;;9.60;99.90;;;;;;6220205;23;20383;-88
2023/01/12 00:09:11;;;;;;;71.33;10.53;;;9.60;99.90;;;;;;6221690;23;20161;-87
2023/01/12 00:11:38;;;;;;;71.97;9.90;;;9.70;99.90;;;;;;6220682;23;20368;-87
2023/01/12 00:14:05;;;;;;;72.47;11.45;;;9.70;99.90;;;;;;6219656;23;20150;-87
2023/01/12 00:16:37;;;;;;;73.88;11.35;;;9.70;99.90;;;;;;6220041;23;20255;-87
2023/01/12 00:19:16;;;;;;;68.80;9.25;;;9.70;99.90;;;;;;6194378;23;20157;-86
2023/01/12 00:24:17;;;;;;;72.53;12.40;;;9.70;99.90;;;;;;6220168;23;20172;-87
2023/01/12 00:26:43;;;;;;;77.40;14.82;;;9.60;99.90;;;;;;6195573;23;20612;-87
2023/01/12 00:29:08;;;;;;;70.20;13.20;;;9.60;99.90;;;;;;6225822;23;20145;-88
2023/01/12 00:31:34;;;;;;;72.70;15.50;;;9.60;99.90;;;;;;6225477;23;20356;-87
2023/01/12 00:34:00;;;;;;;76.30;24.50;;;9.60;99.90;;;;;;6225061;23;20196;-88
2023/01/12 00:36:25;;;;;;;77.67;37.60;;;9.50;99.90;;;;;;6223342;23;20603;-88
2023/01/12 00:38:51;;;;;;;81.70;38.77;;;9.50;99.90;;;;;;6223426;23;20283;-88
2023/01/12 00:45:20;;;;;;;75.83;33.13;;;9.40;99.90;;;;;;6222532;23;20137;-89
2023/01/12 00:46:48;;;;;;;76.82;34.47;;;9.50;99.90;;;;;;6221567;23;20192;-87
2023/01/12 00:49:14;;;;;;;80.47;36.60;;;9.50;99.90;;;;;;6219769;23;20144;-87
2023/01/12 00:51:40;;;;;;;76.63;26.88;;;9.50;99.90;;;;;;6219821;23;20384;-87
2023/01/12 00:54:07;;;;;;;72.28;20.75;;;9.60;99.90;;;;;;6219957;23;20152;-86
2023/01/12 00:56:37;;;;;;;73.20;22.45;;;9.60;99.90;;;;;;6192630;23;20169;-88
2023/01/12 00:59:03;;;;;;;73.65;14.68;;;9.70;99.90;;;;;;6193136;23;20144;-88
2023/01/12 01:01:30;;;;;;;72.03;18.63;;;9.70;99.90;;;;;;6193115;23;20175;-88
2023/01/12 01:03:56;;;;;;;74.20;13.70;;;9.70;99.90;;;;;;6219457;23;20207;-87
2023/01/12 01:06:22;;;;;;;73.73;19.60;;;9.70;99.90;;;;;;6219315;23;20156;-87
2023/01/12 01:08:47;;;;;;;75.93;18.10;;;9.70;99.90;;;;;;6219280;23;20144;-87
2023/01/12 01:11:14;;;;;;;72.80;26.07;;;9.70;99.90;;;;;;6218353;23;20579;-88
2023/01/12 01:13:42;;;;;;;76.13;22.50;;;9.70;99.90;;;;;;6218831;23;20133;-88
2023/01/12 01:16:10;;;;;;;95.18;66.50;;;9.70;99.90;;;;;;6192314;23;20168;-86
2023/01/12 01:18:36;;;;;;;76.22;27.02;;;9.70;99.90;;;;;;6192506;23;20145;-87
2023/01/12 01:21:02;;;;;;;77.90;31.07;;;9.70;99.90;;;;;;6192021;23;20451;-87
2023/01/12 01:23:31;;;;;;;74.57;19.90;;;9.60;99.90;;;;;;6218511;23;20395;-87
2023/01/12 01:26:05;;;;;;;74.38;25.60;;;9.70;99.90;;;;;;6219407;23;20164;-87
2023/01/12 01:28:34;;;;;;;72.95;25.25;;;9.70;99.90;;;;;;6219220;23;20132;-87
2023/01/12 01:31:15;;;;;;;76.13;31.17;;;9.70;99.90;;;;;;6216870;23;20149;-89
2023/01/12 01:33:41;;;;;;;75.45;27.85;;;9.60;99.90;;;;;;6218439;23;20458;-87
2023/01/12 01:36:08;;;;;;;79.95;24.08;;;9.70;99.90;;;;;;6218530;23;20156;-87
2023/01/12 01:38:34;;;;;;;78.35;25.73;;;9.60;99.90;;;;;;6219017;23;20612;-87
2023/01/12 01:41:00;;;;;;;75.55;27.88;;;9.70;99.90;;;;;;6219402;23;20509;-87
2023/01/12 01:43:27;;;;;;;72.97;25.30;;;9.70;99.90;;;;;;6218136;23;20169;-87
2023/01/12 01:46:15;;;;;;;72.10;17.55;;;9.70;99.90;;;;;;6218929;23;20388;-87
2023/01/12 01:48:42;;;;;;;73.15;22.83;;;9.70;99.90;;;;;;6218652;23;20124;-87
2023/01/12 01:51:12;;;;;;;78.65;33.40;;;9.60;99.90;;;;;;6219222;23;20137;-87
2023/01/12 01:53:40;;;;;;;73.47;29.08;;;9.60;99.90;;;;;;6218171;23;20137;-87
2023/01/12 01:56:12;;;;;;;74.00;26.50;;;9.70;99.90;;;;;;6192509;23;20164;-87
2023/01/12 01:58:49;;;;;;;70.60;13.35;;;9.70;99.90;;;;;;6219799;23;20160;-87
2023/01/12 02:01:14;;;;;;;77.55;22.70;;;9.70;99.90;;;;;;6221300;23;20132;-89
2023/01/12 02:03:41;;;;;;;84.93;23.10;;;9.70;99.90;;;;;;6198608;23;20141;-88
2023/01/12 02:06:08;;;;;;;75.13;14.85;;;9.70;99.90;;;;;;6198342;23;20172;-87
2023/01/12 02:08:57;;;;;;;72.57;22.40;;;9.70;99.90;;;;;;6225021;23;20143;-87
2023/01/12 02:16:56;;;;;;;72.90;24.55;;;9.70;99.90;;;;;;6222991;23;20176;-87
2023/01/12 02:19:49;;;;;;;74.55;24.52;;;9.60;99.90;;;;;;6222853;23;20210;-87
2023/01/12 02:22:27;;;;;;;77.78;33.13;;;9.60;99.90;;;;;;6222132;23;20222;-87
2023/01/12 02:25:17;;;;;;;74.50;18.17;;;9.60;99.90;;;;;;6194869;23;20168;-87
2023/01/12 02:27:51;;;;;;;73.68;17.92;;;9.60;99.90;;;;;;6193471;23;20165;-87
2023/01/12 02:30:50;;;;;;;73.78;25.33;;;9.60;99.90;;;;;;6220140;23;20140;-87
2023/01/12 02:33:47;;;;;;;74.90;11.85;;;9.70;99.90;;;;;;6193673;23;20167;-87
2023/01/12 02:36:39;;;;;;;71.45;10.77;;;9.60;99.90;;;;;;6219504;23;20156;-87
2023/01/12 02:39:15;;;;;;;74.22;17.52;;;9.80;99.90;;;;;;6219336;23;20132;-87
2023/01/12 02:44:41;;;;;;;74.32;9.63;;;9.80;99.90;;;;;;6218577;23;20171;-86
2023/01/12 02:47:24;;;;;;;71.20;9.23;;;9.80;99.90;;;;;;6217940;23;20160;-87
2023/01/12 02:49:53;;;;;;;70.30;9.77;;;9.80;99.90;;;;;;6218118;23;20559;-87
2023/01/12 02:52:23;;;;;;;69.93;12.07;;;9.90;99.90;;;;;;6192008;23;20482;-87
2023/01/12 02:54:52;;;;;;;71.50;19.98;;;9.80;99.90;;;;;;6218423;23;20183;-87
2023/01/12 02:57:21;;;;;;;72.18;14.52;;;9.80;99.90;;;;;;6191651;23;20176;-87
2023/01/12 02:59:50;;;;;;;69.82;13.27;;;9.80;99.90;;;;;;6218866;23;20148;-87
2023/01/12 03:02:20;;;;;;;67.53;10.68;;;9.80;99.90;;;;;;6191519;23;20175;-87
2023/01/12 03:04:45;;;;;;;74.57;22.08;;;9.80;99.90;;;;;;6218325;23;20164;-87
2023/01/12 03:07:14;;;;;;;76.73;33.80;;;9.80;99.90;;;;;;6217565;23;20156;-87
2023/01/12 03:09:47;;;;;;;75.07;25.25;;;9.80;99.90;;;;;;6191283;23;20155;-87
2023/01/12 03:12:18;;;;;;;76.30;24.70;;;9.80;99.90;;;;;;6191069;23;20194;-87
2023/01/12 03:14:49;;;;;;;75.10;30.48;;;9.80;99.90;;;;;;6217021;23;20143;-88
2023/01/12 03:17:43;;;;;;;79.10;37.20;;;9.70;99.90;;;;;;6217081;23;20168;-87
2023/01/12 03:20:31;;;;;;;81.75;46.72;;;9.60;99.90;;;;;;6219488;23;20136;-88
2023/01/12 03:23:03;;;;;;;82.13;47.15;;;9.60;99.90;;;;;;6218960;23;20250;-88
2023/01/12 03:25:32;;;;;;;77.25;36.25;;;9.60;99.90;;;;;;6193265;23;20186;-87
2023/01/12 03:28:03;;;;;;;76.68;39.25;;;9.60;99.90;;;;;;6218698;23;20136;-88
2023/01/12 03:30:42;;;;;;;80.97;41.33;;;9.50;99.90;;;;;;6218241;23;20125;-88
2023/01/12 03:33:09;;;;;;;78.90;31.25;;;9.50;99.90;;;;;;6194442;23;20140;-88
2023/01/12 03:35:40;;;;;;;76.25;27.08;;;9.40;99.90;;;;;;6195124;23;20522;-87
2023/01/12 03:38:14;;;;;;;75.55;21.73;;;9.30;99.90;;;;;;6194533;23;20141;-88
2023/01/12 03:40:48;;;;;;;74.93;26.92;;;9.30;99.90;;;;;;6193090;23;20159;-88
2023/01/12 03:43:25;;;;;;;69.07;11.40;;;9.30;99.90;;;;;;6193087;23;20190;-88
2023/01/12 03:45:57;;;;;;;68.45;11.13;;;9.20;99.90;;;;;;6192459;23;20175;-88
2023/01/12 03:49:01;;;;;;;69.38;13.55;;;9.20;99.90;;;;;;6192154;23;20137;-88
2023/01/12 03:51:36;;;;;;;69.65;15.95;;;9.20;99.90;;;;;;6152339;23;20175;-87
2023/01/12 03:54:04;;;;;;;69.75;10.43;;;9.20;99.90;;;;;;6218401;23;20156;-88
2023/01/12 03:56:34;;;;;;;67.80;10.80;;;9.20;99.90;;;;;;6217815;23;20167;-88
2023/01/12 03:59:00;;;;;;;73.20;10.40;;;9.20;99.90;;;;;;6217968;23;20570;-88
2023/01/12 04:01:26;;;;;;;69.60;8.77;;;9.20;99.90;;;;;;6220571;23;20223;-88
2023/01/12 04:03:51;;;;;;;75.50;18.40;;;9.20;99.90;;;;;;6193685;23;20173;-89
2023/01/12 04:06:17;;;;;;;74.60;15.00;;;9.20;99.90;;;;;;6220642;23;20160;-88
2023/01/12 04:08:42;;;;;;;78.50;15.47;;;9.20;99.90;;;;;;6194485;23;20145;-88
2023/01/12 04:13:52;;;;;;;78.57;22.40;;;9.10;99.90;;;;;;6222401;23;20136;-88
2023/01/12 04:16:18;;;;;;;73.20;9.90;;;9.20;99.90;;;;;;6221899;23;20164;-88
2023/01/12 04:18:44;;;;;;;67.20;10.07;;;9.20;99.90;;;;;;6193323;23;20148;-88
2023/01/12 04:22:41;;;;;;;67.73;9.60;;;9.20;99.90;;;;;;6220920;23;20141;-88
2023/01/12 04:23:55;;;;;;;71.95;8.45;;;9.30;99.90;;;;;;6213122;22;20199;-88
2023/01/12 04:26:21;;;;;;;69.10;8.70;;;9.20;99.90;;;;;;6220249;23;20157;-89
2023/01/12 04:28:47;;;;;;;70.30;10.80;;;9.20;99.90;;;;;;6196242;23;20152;-88
2023/01/12 04:31:13;;;;;;;67.10;8.93;;;9.20;99.90;;;;;;6195717;23;20363;-88
2023/01/12 04:33:39;;;;;;;70.40;17.10;;;9.20;99.90;;;;;;6221027;23;20356;-88
2023/01/12 04:36:05;;;;;;;66.80;7.63;;;9.20;99.90;;;;;;6194756;23;20210;-88
2023/01/12 04:38:30;;;;;;;70.80;9.40;;;9.20;99.90;;;;;;6195438;23;20145;-89
2023/01/12 04:40:56;;;;;;;69.47;7.93;;;9.20;99.90;;;;;;6221141;23;20147;-88
2023/01/12 04:43:21;;;;;;;66.53;8.03;;;9.20;99.90;;;;;;6195804;23;20172;-88
2023/01/12 04:45:47;;;;;;;70.07;9.23;;;9.20;99.90;;;;;;6221436;23;20509;-88
2023/01/12 04:48:15;;;;;;;67.27;9.70;;;9.20;99.90;;;;;;6222563;23;20267;-88
2023/01/12 04:50:41;;;;;;;67.50;9.23;;;9.20;99.90;;;;;;6195831;23;20376;-88
2023/01/12 04:53:09;;;;;;;71.05;8.48;;;9.20;99.90;;;;;;6195186;23;20152;-87
2023/01/12 04:55:36;;;;;;;76.45;23.48;;;9.20;99.90;;;;;;6195640;23;20152;-88
2023/01/12 04:58:02;;;;;;;66.72;8.32;;;9.20;99.90;;;;;;6195448;23;20152;-88
2023/01/12 05:00:28;;;;;;;65.17;7.30;;;9.20;99.90;;;;;;6197039;23;20152;-88
2023/01/12 05:03:00;;;;;;;67.27;7.97;;;9.10;99.90;;;;;;6223172;23;20469;-87
2023/01/12 05:05:27;;;;;;;76.88;22.83;;;9.10;99.90;;;;;;6223682;23;20195;-88
2023/01/12 05:10:37;;;;;;;76.03;20.30;;;9.10;99.90;;;;;;6222521;23;20136;-87
2023/01/12 05:13:03;;;;;;;68.57;12.97;;;9.00;99.90;;;;;;6223379;23;20585;-88
2023/01/12 05:15:29;;;;;;;85.87;36.50;;;9.00;99.90;;;;;;6223128;23;20367;-89
2023/01/12 05:17:56;;;;;;;66.10;11.07;;;9.00;99.90;;;;;;6195199;23;20380;-88
2023/01/12 05:20:21;;;;;;;66.97;10.43;;;9.00;99.90;;;;;;6224042;23;20164;-87
2023/01/12 05:22:49;;;;;;;67.50;11.67;;;9.00;99.90;;;;;;6196850;23;20220;-88
2023/01/12 05:25:15;;;;;;;66.90;8.50;;;8.90;99.90;;;;;;6196620;23;20169;-88
2023/01/12 05:27:40;;;;;;;70.27;14.13;;;9.00;99.90;;;;;;6220916;23;20153;-88
2023/01/12 05:30:07;;;;;;;67.90;13.47;;;8.90;99.90;;;;;;6222430;23;20216;-88
2023/01/12 05:32:37;;;;;;;70.20;13.48;;;8.90;99.90;;;;;;6222339;23;20191;-88
2023/01/12 05:35:05;;;;;;;68.53;16.08;;;8.90;99.90;;;;;;6223284;23;20172;-88
2023/01/12 05:37:30;;;;;;;70.18;15.10;;;8.80;99.90;;;;;;6222608;23;20160;-88
2023/01/12 05:39:56;;;;;;;70.50;15.40;;;8.80;99.90;;;;;;6195357;23;20156;-88
2023/01/12 05:45:07;;;;;;;67.60;10.07;;;8.80;99.90;;;;;;6219696;23;20631;-88
2023/01/12 05:47:33;;;;;;;67.18;11.40;;;8.80;99.90;;;;;;6192070;23;20168;-88
2023/01/12 05:49:58;;;;;;;71.20;10.98;;;8.70;99.90;;;;;;6219129;23;20137;-88
2023/01/12 05:52:24;;;;;;;68.03;10.30;;;8.70;99.90;;;;;;6218262;23;20620;-88
2023/01/12 05:54:50;;;;;;;67.30;9.13;;;8.70;99.90;;;;;;6191777;23;20148;-88
2023/01/12 05:57:15;;;;;;;67.33;9.97;;;8.70;99.90;;;;;;6193025;23;20172;-88
2023/01/12 05:59:41;;;;;;;66.57;9.27;;;8.70;99.90;;;;;;6193828;23;20528;-88
2023/01/12 06:02:10;;;;;;;66.80;11.27;;;8.70;99.90;;;;;;6193736;23;20160;-88
2023/01/12 06:04:37;;;;;;;68.00;10.25;;;8.70;99.90;;;;;;6219372;23;20224;-89
2023/01/12 06:07:03;;;;;;;65.78;9.10;;;8.60;99.90;;;;;;6192847;23;20168;-88
2023/01/12 06:09:29;;;;;;;67.73;10.07;;;8.70;99.90;;;;;;6191606;23;20149;-88
2023/01/12 06:14:39;;;;;;;67.75;10.10;;;8.70;99.90;;;;;;6221063;23;20156;-88
2023/01/12 06:17:04;;;;;;;67.97;10.97;;;8.70;99.90;;;;;;6217473;23;20609;-87
2023/01/12 06:19:30;;;;;;;89.10;39.80;;;8.70;99.90;;;;;;6216549;23;20153;-88
2023/01/12 06:21:58;;;;;;;68.55;11.02;;;8.80;99.90;;;;;;6217804;23;20215;-88
2023/01/12 06:24:26;;;;;;;67.03;10.07;;;8.80;99.90;;;;;;6216497;23;20222;-88
2023/01/12 06:26:53;;;;;;;68.93;10.55;;;8.80;99.90;;;;;;6190171;23;20164;-88
2023/01/12 06:29:19;;;;;;;67.70;11.75;;;8.70;99.90;;;;;;6216749;23;20141;-88
2023/01/12 06:31:45;;;;;;;70.15;11.25;;;8.80;99.90;;;;;;6217106;23;20156;-88
2023/01/12 06:34:11;;;;;;;69.50;9.77;;;8.80;99.90;;;;;;6216891;23;20227;-88
2023/01/12 06:36:38;;;;;;;67.20;8.75;;;8.70;99.90;;;;;;6190570;23;20202;-88
2023/01/12 06:39:04;;;;;;;66.93;9.98;;;8.70;99.90;;;;;;6190663;23;20148;-87
2023/01/12 06:44:13;;;;;;;66.72;9.65;;;8.80;99.90;;;;;;6217438;23;20168;-88
2023/01/12 06:46:39;;;;;;;68.13;11.27;;;8.70;99.90;;;;;;6217164;23;20161;-88
2023/01/12 06:49:05;;;;;;;65.97;9.50;;;8.80;99.90;;;;;;6190305;23;20311;-88
2023/01/12 06:51:31;;;;;;;69.07;8.33;;;8.80;99.90;;;;;;6191345;23;20202;-88
2023/01/12 06:53:56;;;;;;;67.73;10.73;;;8.80;99.90;;;;;;6217338;23;20141;-88
2023/01/12 06:56:22;;;;;;;67.87;10.77;;;8.80;99.90;;;;;;6191950;23;20605;-88
2023/01/12 06:58:48;;;;;;;69.53;11.02;;;8.80;99.90;;;;;;6219366;23;20144;-88
2023/01/12 07:01:14;;;;;;;67.37;8.07;;;8.80;99.90;;;;;;6217529;23;20465;-88
2023/01/12 07:03:40;;;;;;;68.07;9.60;;;8.80;99.90;;;;;;6191455;23;20220;-87
2023/01/12 07:06:05;;;;;;;66.83;9.17;;;8.80;99.90;;;;;;6191316;23;20170;-87
2023/01/12 07:08:31;;;;;;;66.97;10.40;;;8.80;99.90;;;;;;6191764;23;20466;-88
2023/01/12 07:11:02;;;;;;;66.03;8.60;;;8.80;99.90;;;;;;6191407;23;20175;-88
2023/01/12 07:13:29;;;;;;;67.18;8.00;;;8.90;99.90;;;;;;6219131;23;20871;-88
2023/01/12 07:15:58;;;;;;;68.57;9.52;;;8.90;99.90;;;;;;6192318;23;20168;-88
2023/01/12 07:18:25;;;;;;;67.10;8.38;;;8.90;99.90;;;;;;6192991;23;20521;-89
2023/01/12 07:20:52;;;;;;;138.90;11.90;;;8.90;99.90;;;;;;6193078;23;20156;-89
2023/01/12 07:23:18;;;;;;;68.63;8.30;;;9.00;99.90;;;;;;6219061;23;20220;-88
2023/01/12 07:25:43;;;;;;;70.83;8.63;;;9.10;99.90;;;;;;6193860;23;20239;-88
2023/01/12 07:28:09;;;;;;;74.07;9.40;;;9.10;99.90;;;;;;6220391;23;20584;-87
2023/01/12 07:30:34;;;;;;;66.20;8.50;;;9.10;99.90;;;;;;6190750;23;20154;-88
2023/01/12 07:33:11;;;;;;;69.20;7.87;;;9.10;99.90;;;;;;6216921;23;20137;-88
2023/01/12 07:35:38;;;;;;;83.50;33.60;;;9.20;99.90;;;;;;6216543;23;20140;-88
2023/01/12 07:38:05;;;;;;;80.35;10.07;;;9.20;99.90;;;;;;6217365;23;20479;-88
2023/01/12 07:40:31;;;;;;;71.70;8.10;;;9.30;99.90;;;;;;6190993;23;20153;-88
2023/01/12 07:43:01;;;;;;;66.50;6.75;;;9.30;99.90;;;;;;6191749;23;20152;-87
2023/01/12 07:45:27;;;;;;;70.55;8.13;;;9.40;99.90;;;;;;6218624;23;20497;-87
2023/01/12 07:47:54;;;;;;;69.60;6.93;;;9.40;99.90;;;;;;6191765;23;20148;-88
2023/01/12 07:50:21;;;;;;;66.15;6.82;;;9.50;99.90;;;;;;6218349;23;20145;-88
2023/01/12 07:52:46;;;;;;;67.55;6.57;;;9.50;99.90;;;;;;6217809;23;20137;-89
2023/01/12 07:55:15;;;;;;;66.57;7.70;;;9.50;99.90;;;;;;6218629;23;20498;-88
2023/01/12 07:57:52;;;;;;;66.97;8.20;;;9.60;99.90;;;;;;6191207;23;20487;-88
2023/01/12 08:00:22;;;;;;;69.72;6.78;;;9.60;99.90;;;;;;6217964;23;20216;-88
2023/01/12 08:02:48;;;;;;;65.60;5.68;;;9.60;99.90;;;;;;6192804;23;20447;-88
2023/01/12 08:05:14;;;;;;;67.50;5.18;;;9.70;99.90;;;;;;6191744;23;20168;-88
2023/01/12 08:07:39;;;;;;;66.73;7.03;;;9.60;99.90;;;;;;6218321;23;20279;-88
2023/01/12 08:10:05;;;;;;;67.07;11.03;;;9.70;99.90;;;;;;6191621;23;20203;-88
2023/01/12 08:12:31;;;;;;;67.55;10.23;;;9.70;99.90;;;;;;6218336;23;20215;-88
2023/01/12 08:14:59;;;;;;;66.30;6.80;;;9.80;99.90;;;;;;6191089;23;20179;-88
2023/01/12 08:17:39;;;;;;;66.10;6.30;;;9.90;99.90;;;;;;6217905;23;20243;-88
2023/01/12 08:20:11;;;;;;;67.13;5.63;;;9.90;99.90;;;;;;6192016;23;20182;-88
2023/01/12 08:22:41;;;;;;;71.47;11.68;;;9.90;99.90;;;;;;6191331;23;20137;-88
2023/01/12 08:25:13;;;;;;;64.85;5.95;;;9.90;99.90;;;;;;6217352;23;20177;-88
2023/01/12 08:27:42;;;;;;;65.40;5.43;;;10.00;99.90;;;;;;6191251;23;20161;-88
2023/01/12 08:30:16;;;;;;;69.00;6.68;;;10.00;99.90;;;;;;6190929;23;20149;-88
2023/01/12 08:32:45;;;;;;;68.00;6.72;;;10.00;99.90;;;;;;6217899;23;20167;-89
2023/01/12 08:35:13;;;;;;;64.80;5.05;;;10.00;99.90;;;;;;6217590;23;20141;-88
2023/01/12 08:37:39;;;;;;;65.57;5.00;;;10.00;99.90;;;;;;6190808;23;20169;-88
2023/01/12 08:40:07;;;;;;;65.03;4.68;;;10.00;99.90;;;;;;6217918;23;20199;-88
2023/01/12 08:42:32;;;;;;;65.60;5.30;;;10.00;99.90;;;;;;6218750;23;20191;-88
2023/01/12 08:45:00;;;;;;;65.70;4.33;;;10.10;99.90;;;;;;6203192;23;20172;-88
2023/01/12 08:47:29;;;;;;;64.38;4.80;;;10.10;99.90;;;;;;6236929;23;20376;-87
2023/01/12 08:49:58;;;;;;;65.38;4.65;;;10.10;99.90;;;;;;6224019;23;20137;-88
2023/01/12 08:52:34;;;;;;;64.90;5.15;;;10.10;99.90;;;;;;6220073;23;20140;-88
2023/01/12 08:55:00;;;;;;;65.13;4.30;;;10.10;99.90;;;;;;6191404;23;20148;-88
2023/01/12 08:57:26;;;;;;;64.35;3.92;;;10.10;99.90;;;;;;6191160;23;20691;-88
2023/01/12 08:59:52;;;;;;;65.43;4.10;;;10.20;99.90;;;;;;6217779;23;20140;-88
2023/01/12 09:02:25;;;;;;;64.70;4.30;;;10.30;99.90;;;;;;6218367;23;20149;-88
2023/01/12 09:04:51;;;;;;;65.90;4.65;;;10.30;99.90;;;;;;6190604;23;20756;-88
2023/01/12 09:07:18;;;;;;;64.10;3.50;;;10.30;99.90;;;;;;6217626;23;20156;-88
2023/01/12 09:09:44;;;;;;;67.75;7.13;;;10.40;99.90;;;;;;6217671;23;20441;-88
2023/01/12 09:12:13;;;;;;;65.10;8.20;;;10.40;99.90;;;;;;6217532;23;20137;-89
2023/01/12 09:14:38;;;;;;;64.50;3.78;;;10.40;99.90;;;;;;6191931;23;20195;-88
2023/01/12 09:17:05;;;;;;;63.80;3.70;;;10.40;99.90;;;;;;6217168;23;20168;-88
2023/01/12 09:19:32;;;;;;;65.15;4.65;;;10.50;99.90;;;;;;6217627;23;20418;-89
2023/01/12 09:22:00;;;;;;;64.28;3.47;;;10.50;99.90;;;;;;6217595;23;20140;-88
2023/01/12 09:24:26;;;;;;;64.47;5.93;;;10.50;99.90;;;;;;6216943;23;20506;-88
2023/01/12 09:26:55;;;;;;;70.07;4.60;;;10.60;99.90;;;;;;6191066;23;20168;-88
2023/01/12 09:29:21;;;;;;;64.32;3.55;;;10.60;99.90;;;;;;6217391;23;20375;-87
2023/01/12 09:31:47;;;;;;;63.60;3.23;;;10.60;99.90;;;;;;6217197;23;20474;-89
2023/01/12 09:34:13;;;;;;;64.40;3.57;;;10.60;99.90;;;;;;6217236;23;20141;-89
2023/01/12 09:36:39;;;;;;;63.80;3.73;;;10.60;99.90;;;;;;6190448;23;20239;-88
2023/01/12 09:39:09;;;;;;;72.70;13.40;;;10.60;99.90;;;;;;6216981;23;20701;-89
2023/01/12 09:47:33;;;;;;;63.50;3.90;;;10.70;99.90;;;;;;6217574;23;20641;-88
2023/01/12 09:50:11;;;;;;;65.53;4.10;;;10.80;99.90;;;;;;6191964;23;20144;-88
2023/01/12 09:53:16;;;;;;;64.82;4.25;;;10.80;99.90;;;;;;6217656;23;20200;-88
2023/01/12 09:56:01;;;;;;;64.53;4.68;;;10.80;99.90;;;;;;6190279;23;20629;-88
2023/01/12 09:58:36;;;;;;;64.60;4.00;;;10.80;99.90;;;;;;6190239;23;20142;-89
2023/01/12 10:01:10;;;;;;;64.30;3.80;;;10.80;99.90;;;;;;6190651;23;20469;-89
2023/01/12 10:03:45;;;;;;;64.13;4.15;;;10.80;99.90;;;;;;6190261;23;20142;-89
2023/01/12 10:06:17;;;;;;;64.88;4.28;;;10.90;99.90;;;;;;6191455;23;20538;-88
2023/01/12 10:08:51;;;;;;;65.10;4.63;;;10.90;99.90;;;;;;6190291;23;20137;-88
2023/01/12 10:11:35;;;;;;;63.88;3.78;;;10.90;99.90;;;;;;6190189;23;20144;-89
2023/01/12 10:14:19;;;;;;;66.22;3.80;;;10.90;99.90;;;;;;6190073;23;20203;-88
2023/01/12 10:17:18;;;;;;;69.25;4.10;;;10.90;99.90;;;;;;6189443;23;20168;-89
2023/01/12 10:19:55;;;;;;;63.53;3.17;;;10.90;99.90;;;;;;6190704;23;20148;-89
2023/01/12 10:24:52;;;;;;;67.90;4.93;;;11.00;99.90;;;;;;6216519;23;20188;-87
2023/01/12 10:27:21;;;;;;;64.80;3.77;;;10.90;99.90;;;;;;6216001;23;20460;-87
2023/01/12 10:29:47;;;;;;;64.30;3.53;;;10.90;99.90;;;;;;6218260;23;20143;-86
2023/01/12 10:32:13;;;;;;;63.97;3.63;;;10.90;99.90;;;;;;6192011;23;20140;-86
2023/01/12 10:34:51;;;;;;;64.47;3.80;;;11.00;99.90;;;;;;6217903;23;20398;-86
2023/01/12 10:37:17;;;;;;;66.43;4.18;;;11.00;99.90;;;;;;6217472;23;20338;-86
2023/01/12 10:39:43;;;;;;;65.27;3.93;;;11.10;99.90;;;;;;6217211;23;20140;-87
2023/01/12 10:43:17;;;;;;;65.07;4.77;;;11.10;99.90;;;;;;6190271;23;20399;-86
2023/01/12 10:45:21;;;;;;;68.53;3.95;;;11.10;99.90;;;;;;6216664;23;20411;-86
2023/01/12 10:47:49;;;;;;;64.90;5.30;;;11.20;99.90;;;;;;6189697;23;20129;-86
2023/01/12 10:50:22;;;;;;;64.45;4.82;;;11.20;99.90;;;;;;6217483;23;20215;-86
2023/01/12 10:52:53;;;;;;;65.72;5.07;;;11.20;99.90;;;;;;6217556;23;20664;-86
2023/01/12 10:55:23;;;;;;;64.18;5.78;;;11.20;99.90;;;;;;6190186;23;20168;-87
2023/01/12 10:57:50;;;;;;;64.45;5.88;;;11.20;99.90;;;;;;6216803;23;20155;-87
2023/01/12 11:00:25;;;;;;;64.47;6.90;;;11.20;99.90;;;;;;6216857;23;20145;-87
2023/01/12 11:02:51;;;;;;;66.75;12.07;;;11.30;99.90;;;;;;6189994;23;20152;-86
2023/01/12 11:05:33;;;;;;;67.47;9.90;;;11.30;99.90;;;;;;6216307;23;20676;-86
2023/01/12 11:08:00;;;;;;;66.63;12.55;;;11.30;99.90;;;;;;6190466;23;20466;-86
2023/01/12 11:10:32;;;;;;;66.22;9.98;;;11.30;99.90;;;;;;6216001;23;20175;-86
2023/01/12 11:13:02;;;;;;;67.63;12.00;;;11.40;99.90;;;;;;6189712;23;20149;-87
2023/01/12 11:15:29;;;;;;;66.68;10.85;;;11.40;99.90;;;;;;6219498;23;20145;-87
2023/01/12 11:18:29;;;;;;;67.65;10.45;;;11.40;99.90;;;;;;6218390;23;20172;-87
2023/01/12 11:21:06;;;;;;;66.40;11.10;;;11.40;99.90;;;;;;6218282;23;20472;-87
2023/01/12 11:23:41;;;;;;;66.25;9.63;;;11.50;99.90;;;;;;6217787;23;20156;-87
2023/01/12 11:26:25;;;;;;;65.13;8.15;;;11.50;99.90;;;;;;6218045;23;20163;-87
2023/01/12 11:28:54;;;;;;;66.10;11.32;;;11.50;99.90;;;;;;6191016;23;20220;-87
2023/01/12 11:31:27;;;;;;;65.90;11.45;;;11.50;99.90;;;;;;6218129;23;20183;-85
2023/01/12 11:34:12;;;;;;;65.22;7.72;;;11.50;99.90;;;;;;6217966;23;20494;-87
2023/01/12 11:36:45;;;;;;;65.40;9.65;;;11.60;99.90;;;;;;6190943;23;20173;-87
2023/01/12 11:39:18;;;;;;;65.20;9.23;;;11.60;99.90;;;;;;6217779;23;20132;-86
2023/01/12 11:43:47;;;;;;;64.18;6.55;;;11.60;99.90;;;;;;6217889;23;20547;-87
2023/01/12 11:44:54;;;;;;;65.32;8.77;;;11.60;99.90;;;;;;6217243;23;20184;-87
2023/01/12 11:47:40;;;;;;;65.30;7.93;;;11.60;99.90;;;;;;6217762;23;20160;-87
2023/01/12 11:50:29;;;;;;;65.88;8.68;;;11.60;99.90;;;;;;6191045;23;20210;-87
2023/01/12 11:52:56;;;;;;;65.10;7.10;;;11.70;99.90;;;;;;6217362;23;20172;-86
2023/01/12 11:56:07;;;;;;;65.70;7.60;;;11.70;99.90;;;;;;6217353;23;20136;-87
2023/01/12 11:58:32;;;;;;;66.22;7.43;;;11.70;99.90;;;;;;6168480;23;20474;-86
2023/01/12 12:01:35;;;;;;;67.30;8.70;;;11.70;99.90;;;;;;6190710;23;20149;-87
2023/01/12 12:04:10;;;;;;;64.82;7.95;;;11.70;99.90;;;;;;6199840;23;20451;-87
2023/01/12 12:06:54;;;;;;;65.88;10.30;;;11.70;99.90;;;;;;6190783;23;20251;-87
2023/01/12 12:09:23;;;;;;;64.85;9.27;;;11.70;99.90;;;;;;6190628;23;20141;-87
2023/01/12 12:11:59;;;;;;;64.78;8.13;;;11.70;99.90;;;;;;6217230;23;20510;-87
2023/01/12 12:14:48;;;;;;;65.10;7.78;;;11.70;99.90;;;;;;6217258;23;20579;-88
2023/01/12 12:17:35;;;;;;;66.47;12.95;;;11.70;99.90;;;;;;6217351;23;20533;-87
2023/01/12 12:20:15;;;;;;;65.72;10.77;;;11.60;99.90;;;;;;6217212;23;20201;-88
2023/01/12 12:23:25;;;;;;;65.50;8.50;;;11.60;99.90;;;;;;6216949;23;20139;-88
2023/01/12 12:25:59;;;;;;;65.43;8.52;;;11.60;99.90;;;;;;6189377;23;20176;-88
2023/01/12 12:28:36;;;;;;;67.32;9.93;;;11.60;99.90;;;;;;6216993;23;20635;-88
2023/01/12 12:31:25;;;;;;;67.60;10.52;;;11.60;99.90;;;;;;6190933;23;20193;-87
2023/01/12 12:34:36;;;;;;;66.07;10.65;;;11.60;99.90;;;;;;6196139;23;20148;-87
2023/01/12 12:37:34;;;;;;;66.93;9.27;;;11.60;99.90;;;;;;6171349;23;20195;-88
2023/01/12 12:40:19;;;;;;;67.15;12.05;;;11.60;99.90;;;;;;6217246;23;20573;-88
2023/01/12 12:46:06;;;;;;;67.93;10.85;;;11.50;99.90;;;;;;6216777;23;20186;-88
2023/01/12 12:48:35;;;;;;;66.10;9.20;;;11.40;99.90;;;;;;6190657;23;20451;-88
2023/01/12 12:51:07;;;;;;;65.78;10.57;;;11.50;99.90;;;;;;6190117;23;20644;-87
2023/01/12 12:53:38;;;;;;;65.25;8.85;;;11.40;99.90;;;;;;6216730;23;20144;-87
2023/01/12 12:56:13;;;;;;;65.22;8.15;;;11.40;99.90;;;;;;6217047;23;20202;-87
2023/01/12 12:58:54;;;;;;;66.63;12.32;;;11.40;99.90;;;;;;6216810;23;20129;-87
2023/01/12 13:01:28;;;;;;;66.65;10.55;;;11.50;99.90;;;;;;6217104;23;20129;-87
2023/01/12 13:03:59;;;;;;;66.72;11.85;;;11.50;99.90;;;;;;6190016;23;20172;-87
2023/01/12 13:06:46;;;;;;;66.75;11.13;;;11.50;99.90;;;;;;6190052;23;20169;-87
2023/01/12 13:09:13;;;;;;;65.72;7.63;;;11.50;99.90;;;;;;6217195;23;20191;-87
2023/01/12 13:12:10;;;;;;;66.45;9.45;;;11.50;99.90;;;;;;6216625;23;20498;-87
2023/01/12 13:14:41;;;;;;;65.43;8.90;;;11.40;99.90;;;;;;6189907;23;20183;-87
2023/01/12 13:17:18;;;;;;;66.65;8.43;;;11.40;99.90;;;;;;6189872;23;20483;-87
2023/01/12 13:19:48;;;;;;;65.55;9.90;;;11.40;99.90;;;;;;6216919;23;20636;-87
2023/01/12 13:22:32;;;;;;;65.47;9.60;;;11.40;99.90;;;;;;6216931;23;20203;-87
2023/01/12 13:25:01;;;;;;;66.13;9.35;;;11.50;99.90;;;;;;6216591;23;20235;-87
2023/01/12 13:28:09;;;;;;;65.43;9.52;;;11.40;99.90;;;;;;6216481;23;20239;-87
2023/01/12 13:30:39;;;;;;;67.22;7.70;;;11.40;99.90;;;;;;6189999;23;20167;-86
2023/01/12 13:33:13;;;;;;;65.80;10.63;;;11.40;99.90;;;;;;6190003;23;20144;-87
2023/01/12 13:35:47;;;;;;;66.38;10.43;;;11.40;99.90;;;;;;6221073;23;20190;-87
2023/01/12 13:38:51;;;;;;;65.85;10.13;;;11.40;99.90;;;;;;6219176;23;20584;-86
2023/01/12 13:44:47;;;;;;;65.10;8.55;;;11.50;99.90;;;;;;6217470;23;20164;-87